Time;durP1;ratioP1;P1;durP2;ratioP2;P2;SDS_P1;SDS_P2;PMS_P1;PMS_P2;Temp;Humidity;BMP_temperature;BMP_pressure;BME280_temperature;BME280_humidity;BME280_pressure;Samples;Min_cycle;Max_cycle;Signal;HPM_P1;HPM_P2
2021/10/14 00:00:11;;;;;;;1.57;1.10;;;11.60;98.20;;;;;;4968285;28;20993;-77
2021/10/14 00:02:39;;;;;;;1.50;1.10;;;11.60;98.20;;;;;;4978116;28;21085;-77
2021/10/14 00:05:06;;;;;;;1.60;1.10;;;11.60;98.20;;;;;;4975281;28;20644;-77
2021/10/14 00:07:33;;;;;;;1.50;1.07;;;11.60;98.20;;;;;;4978114;28;20530;-78
2021/10/14 00:10:00;;;;;;;1.53;1.10;;;11.50;98.20;;;;;;4979595;28;20481;-77
2021/10/14 00:12:28;;;;;;;1.57;1.10;;;11.60;98.20;;;;;;4983389;28;20482;-76
2021/10/14 00:14:54;;;;;;;1.57;1.10;;;11.50;98.20;;;;;;4976004;28;20465;-77
2021/10/14 00:17:21;;;;;;;1.53;1.10;;;11.50;98.20;;;;;;4981170;28;20491;-77
2021/10/14 00:19:48;;;;;;;1.57;1.10;;;11.50;98.20;;;;;;4971990;28;20482;-78
2021/10/14 00:22:15;;;;;;;1.60;1.10;;;11.50;98.20;;;;;;4972610;28;21012;-77
2021/10/14 00:24:41;;;;;;;1.53;1.10;;;11.50;98.20;;;;;;4981885;28;20469;-77
2021/10/14 00:27:08;;;;;;;1.50;1.10;;;11.50;98.20;;;;;;4970939;28;20497;-77
2021/10/14 00:29:37;;;;;;;1.53;1.10;;;11.50;98.20;;;;;;4982326;28;20529;-75
2021/10/14 00:32:04;;;;;;;1.60;1.10;;;11.50;98.20;;;;;;4978601;28;20488;-75
2021/10/14 00:34:30;;;;;;;1.57;1.10;;;11.50;98.20;;;;;;4984801;28;20492;-78
2021/10/14 00:36:57;;;;;;;2.97;2.53;;;11.50;98.20;;;;;;4972740;28;20489;-76
2021/10/14 00:39:24;;;;;;;1.53;1.10;;;11.50;98.20;;;;;;4977941;28;20504;-76
2021/10/14 00:41:51;;;;;;;1.53;1.10;;;11.50;98.20;;;;;;4969190;28;20491;-75
2021/10/14 00:44:17;;;;;;;1.57;1.00;;;11.50;98.20;;;;;;4989650;28;20472;-75
2021/10/14 00:46:54;;;;;;;1.57;1.10;;;11.50;98.20;;;;;;4978483;28;20662;-75
2021/10/14 00:49:21;;;;;;;1.53;1.00;;;11.50;98.20;;;;;;4977625;28;21019;-77
2021/10/14 00:51:49;;;;;;;1.60;1.20;;;11.50;98.20;;;;;;4976180;28;21011;-78
2021/10/14 00:54:18;;;;;;;1.60;1.10;;;11.50;98.20;;;;;;4989161;28;20472;-77
2021/10/14 00:56:46;;;;;;;1.53;1.10;;;11.50;98.20;;;;;;4974947;28;20492;-77
2021/10/14 00:59:14;;;;;;;1.60;1.13;;;11.50;98.20;;;;;;4991338;28;20608;-77
2021/10/14 01:01:41;;;;;;;1.53;1.10;;;11.50;98.20;;;;;;4941761;28;1046590;-77
2021/10/14 01:04:09;;;;;;;1.57;1.10;;;11.50;98.20;;;;;;4978637;28;20206;-77
2021/10/14 01:06:36;;;;;;;1.53;1.03;;;11.50;98.20;;;;;;4972761;28;20494;-77
2021/10/14 01:09:03;;;;;;;1.60;1.10;;;11.50;98.20;;;;;;4982955;28;20584;-77
2021/10/14 01:11:30;;;;;;;1.57;1.10;;;11.50;98.20;;;;;;4980187;28;20492;-76
2021/10/14 01:13:57;;;;;;;1.57;1.10;;;11.50;98.20;;;;;;4968881;28;20626;-77
2021/10/14 01:16:24;;;;;;;1.53;1.10;;;11.50;98.20;;;;;;4966836;28;20489;-76
2021/10/14 01:18:51;;;;;;;1.53;1.10;;;11.50;98.20;;;;;;4994166;28;20866;-75
2021/10/14 01:21:20;;;;;;;1.50;1.10;;;11.50;98.20;;;;;;4993311;28;20552;-75
2021/10/14 01:23:47;;;;;;;1.53;1.10;;;11.50;98.20;;;;;;4989436;28;20551;-75
2021/10/14 01:26:13;;;;;;;1.50;1.10;;;11.50;98.20;;;;;;4974817;28;20799;-75
2021/10/14 01:28:41;;;;;;;1.53;1.10;;;11.50;98.20;;;;;;4992791;28;20490;-75
2021/10/14 01:31:07;;;;;;;1.60;1.20;;;11.50;98.20;;;;;;4975725;28;20515;-75
2021/10/14 01:33:34;;;;;;;1.57;1.10;;;11.50;98.20;;;;;;4999661;28;20988;-76
2021/10/14 01:36:02;;;;;;;1.53;1.10;;;11.50;98.20;;;;;;4975814;28;20784;-75
2021/10/14 01:38:30;;;;;;;1.57;1.10;;;11.50;98.20;;;;;;5000705;28;20880;-75
2021/10/14 01:40:57;;;;;;;1.53;1.10;;;11.50;98.20;;;;;;4972636;28;20490;-75
2021/10/14 01:43:24;;;;;;;1.60;1.10;;;11.50;98.20;;;;;;4993300;28;21007;-78
2021/10/14 01:45:50;;;;;;;1.50;1.10;;;11.50;98.20;;;;;;4973663;28;20915;-78
2021/10/14 01:48:18;;;;;;;1.60;1.10;;;11.50;98.20;;;;;;4994402;28;20491;-77
2021/10/14 01:50:45;;;;;;;1.53;1.10;;;11.50;98.20;;;;;;4976003;28;20758;-77
2021/10/14 01:53:11;;;;;;;1.57;1.17;;;11.50;98.20;;;;;;4966169;28;20468;-76
2021/10/14 01:55:40;;;;;;;1.50;1.10;;;11.60;98.20;;;;;;4981076;28;20469;-78
2021/10/14 01:58:07;;;;;;;1.57;1.10;;;11.50;98.20;;;;;;4975953;28;20486;-77
2021/10/14 02:00:34;;;;;;;1.60;1.10;;;11.50;98.20;;;;;;4978430;28;20544;-77
2021/10/14 02:03:01;;;;;;;1.57;1.10;;;11.50;98.20;;;;;;4982013;28;20500;-78
2021/10/14 02:05:27;;;;;;;1.57;1.20;;;11.60;98.20;;;;;;4973217;28;20461;-77
2021/10/14 02:07:54;;;;;;;1.53;1.20;;;11.60;98.20;;;;;;4980695;28;20484;-78
2021/10/14 02:10:21;;;;;;;1.60;1.10;;;11.60;98.20;;;;;;4981348;28;20473;-77
2021/10/14 02:12:49;;;;;;;1.57;1.20;;;11.60;98.20;;;;;;4985061;28;20734;-75
2021/10/14 02:15:17;;;;;;;1.53;1.10;;;11.60;98.20;;;;;;4983051;28;20462;-76
2021/10/14 02:17:43;;;;;;;1.50;1.10;;;11.60;98.20;;;;;;4989284;28;20888;-75
2021/10/14 02:20:11;;;;;;;1.53;1.10;;;11.60;98.20;;;;;;4979203;28;20679;-78
2021/10/14 02:22:38;;;;;;;1.60;1.10;;;11.60;98.20;;;;;;4982741;28;20535;-76
2021/10/14 02:25:08;;;;;;;1.53;1.10;;;11.60;98.20;;;;;;4984600;28;20837;-78
2021/10/14 02:27:35;;;;;;;1.50;1.10;;;11.60;98.20;;;;;;4976176;28;20500;-77
2021/10/14 02:30:04;;;;;;;1.53;1.00;;;11.60;98.20;;;;;;4976200;28;20482;-77
2021/10/14 02:32:31;;;;;;;1.60;1.10;;;11.60;98.20;;;;;;4975150;28;20484;-77
2021/10/14 02:34:58;;;;;;;1.57;1.10;;;11.60;98.20;;;;;;4978575;28;20465;-77
2021/10/14 02:37:26;;;;;;;1.57;1.03;;;11.60;98.20;;;;;;4974063;28;21043;-78
2021/10/14 02:39:52;;;;;;;1.60;1.20;;;11.60;98.20;;;;;;4976535;28;20488;-76
2021/10/14 02:42:20;;;;;;;1.53;1.10;;;11.60;98.20;;;;;;4971959;28;20497;-77
2021/10/14 02:44:47;;;;;;;1.57;1.10;;;11.60;98.20;;;;;;4977622;28;20473;-77
2021/10/14 02:47:15;;;;;;;1.53;1.10;;;11.60;98.20;;;;;;4975315;28;20579;-78
2021/10/14 02:49:42;;;;;;;2.80;2.60;;;11.60;98.20;;;;;;4985346;28;20485;-77
2021/10/14 02:52:08;;;;;;;1.53;1.10;;;11.60;98.20;;;;;;4983167;28;20488;-77
2021/10/14 02:54:35;;;;;;;1.57;1.10;;;11.60;98.20;;;;;;4974090;28;20782;-77
2021/10/14 02:57:02;;;;;;;1.57;1.10;;;11.50;98.20;;;;;;4973148;28;21045;-76
2021/10/14 02:59:29;;;;;;;1.53;1.10;;;11.50;98.20;;;;;;4983276;28;20540;-78
2021/10/14 03:01:56;;;;;;;1.50;1.10;;;11.50;98.20;;;;;;4972645;28;20480;-76
2021/10/14 03:04:24;;;;;;;1.50;1.00;;;11.50;98.20;;;;;;4979083;28;20473;-77
2021/10/14 03:06:50;;;;;;;1.57;1.10;;;11.40;98.20;;;;;;4969447;28;20861;-77
2021/10/14 03:09:17;;;;;;;1.57;1.20;;;11.40;98.20;;;;;;4983534;28;20500;-78
2021/10/14 03:11:44;;;;;;;1.53;1.10;;;11.40;98.20;;;;;;4973274;28;20480;-76
2021/10/14 03:14:11;;;;;;;1.53;1.10;;;11.40;98.20;;;;;;4980464;28;20857;-77
2021/10/14 03:16:38;;;;;;;1.60;1.20;;;11.40;98.20;;;;;;4962816;28;20520;-78
2021/10/14 03:19:04;;;;;;;1.50;1.10;;;11.40;98.20;;;;;;4982889;28;20478;-77
2021/10/14 03:21:33;;;;;;;1.53;1.10;;;11.40;98.20;;;;;;4965315;28;20481;-78
2021/10/14 03:23:59;;;;;;;1.60;1.10;;;11.40;98.20;;;;;;4989265;28;20480;-76
2021/10/14 03:26:26;;;;;;;1.57;1.10;;;11.40;98.20;;;;;;4980360;28;20868;-78
2021/10/14 03:28:55;;;;;;;1.53;1.10;;;11.40;98.20;;;;;;4983786;28;20486;-77
2021/10/14 03:31:22;;;;;;;1.60;1.10;;;11.40;98.20;;;;;;4967922;28;20856;-79
2021/10/14 03:33:49;;;;;;;1.53;1.07;;;11.40;98.20;;;;;;4983290;28;20553;-76
2021/10/14 03:36:16;;;;;;;1.57;1.00;;;11.40;98.20;;;;;;4976298;28;20863;-76
2021/10/14 03:38:44;;;;;;;1.50;1.10;;;11.40;98.20;;;;;;4990341;28;20860;-77
2021/10/14 03:41:11;;;;;;;1.60;1.20;;;11.40;98.20;;;;;;4971677;28;20515;-78
2021/10/14 03:43:37;;;;;;;1.57;1.10;;;11.40;98.20;;;;;;4986120;28;20993;-77
2021/10/14 03:46:04;;;;;;;1.57;1.20;;;11.30;98.20;;;;;;4967745;28;20461;-78
2021/10/14 03:48:31;;;;;;;1.53;1.10;;;11.30;98.20;;;;;;4994580;28;21024;-76
2021/10/14 03:50:58;;;;;;;1.53;1.10;;;11.30;98.20;;;;;;4965873;28;20477;-77
2021/10/14 03:53:25;;;;;;;1.57;1.10;;;11.30;98.20;;;;;;4986294;28;20457;-78
2021/10/14 03:55:53;;;;;;;1.50;1.10;;;11.30;98.20;;;;;;4965109;28;20466;-75
2021/10/14 03:58:20;;;;;;;1.60;1.20;;;11.30;98.20;;;;;;4991751;28;20481;-75
2021/10/14 04:00:47;;;;;;;1.57;1.10;;;11.30;98.20;;;;;;4976702;28;20461;-75
2021/10/14 04:03:14;;;;;;;1.53;1.10;;;11.30;98.20;;;;;;4995295;28;20618;-75
2021/10/14 04:05:41;;;;;;;1.57;1.10;;;11.30;98.20;;;;;;4982111;28;20473;-75
2021/10/14 04:08:08;;;;;;;1.50;1.10;;;11.30;98.20;;;;;;4982497;28;20576;-76
2021/10/14 04:10:35;;;;;;;1.57;1.10;;;11.20;98.20;;;;;;4978618;28;20462;-76
2021/10/14 04:13:03;;;;;;;1.53;1.10;;;11.20;98.20;;;;;;4978703;28;20484;-76
2021/10/14 04:15:30;;;;;;;1.60;1.10;;;11.30;98.20;;;;;;4972561;28;20921;-76
2021/10/14 04:17:56;;;;;;;1.60;1.10;;;11.30;98.20;;;;;;4983408;28;20516;-76
2021/10/14 04:20:24;;;;;;;1.53;1.20;;;11.30;98.20;;;;;;4988742;28;20501;-76
2021/10/14 04:22:52;;;;;;;1.53;1.10;;;11.30;98.20;;;;;;4987223;28;20469;-76
2021/10/14 04:25:18;;;;;;;1.57;1.10;;;11.30;98.20;;;;;;4975803;28;20561;-76
2021/10/14 04:27:46;;;;;;;1.53;1.10;;;11.30;98.20;;;;;;4989600;28;20507;-76
2021/10/14 04:30:15;;;;;;;1.50;1.10;;;11.30;98.20;;;;;;4980864;28;20554;-79
2021/10/14 04:32:49;;;;;;;1.53;1.10;;;11.30;98.20;;;;;;4979254;28;20503;-77
2021/10/14 04:35:16;;;;;;;1.50;1.10;;;11.30;98.20;;;;;;4969629;28;20481;-79
2021/10/14 04:37:45;;;;;;;1.53;1.20;;;11.30;98.20;;;;;;4977771;28;20881;-79
2021/10/14 04:40:12;;;;;;;1.53;1.10;;;11.30;98.20;;;;;;4970661;28;20485;-76
2021/10/14 04:42:39;;;;;;;1.53;1.10;;;11.30;98.20;;;;;;4978923;28;20480;-76
2021/10/14 04:45:07;;;;;;;1.50;1.07;;;11.20;98.20;;;;;;4977082;28;20465;-75
2021/10/14 04:47:36;;;;;;;1.53;1.10;;;11.20;98.20;;;;;;4976033;28;20490;-76
2021/10/14 04:50:04;;;;;;;1.60;1.20;;;11.20;98.20;;;;;;4975666;28;20498;-75
2021/10/14 04:52:34;;;;;;;1.53;1.00;;;11.20;98.20;;;;;;4976433;28;20560;-78
2021/10/14 04:55:01;;;;;;;1.60;1.20;;;11.20;98.20;;;;;;4965723;28;20811;-76
2021/10/14 04:57:28;;;;;;;1.57;1.20;;;11.20;98.20;;;;;;4977447;28;20556;-78
2021/10/14 04:59:55;;;;;;;1.57;1.20;;;11.20;98.20;;;;;;4970357;28;20577;-77
2021/10/14 05:02:22;;;;;;;1.60;1.30;;;11.20;98.20;;;;;;4976612;28;20511;-75
2021/10/14 05:04:50;;;;;;;1.57;1.13;;;11.20;98.20;;;;;;4979826;28;20846;-76
2021/10/14 05:07:17;;;;;;;1.60;1.20;;;11.20;98.20;;;;;;4970578;28;20880;-78
2021/10/14 05:09:44;;;;;;;1.53;1.10;;;11.20;98.20;;;;;;4971336;28;20491;-79
2021/10/14 05:12:15;;;;;;;1.53;1.20;;;11.20;98.20;;;;;;4977322;28;20479;-78
2021/10/14 05:14:42;;;;;;;1.53;1.10;;;11.20;98.20;;;;;;4986798;28;20461;-76
2021/10/14 05:17:15;;;;;;;1.60;1.20;;;11.20;98.20;;;;;;4983340;28;20473;-76
2021/10/14 05:19:43;;;;;;;1.60;1.10;;;11.20;98.20;;;;;;4989973;28;20478;-75
2021/10/14 05:22:11;;;;;;;1.53;1.17;;;11.30;98.20;;;;;;4977646;28;20489;-77
2021/10/14 05:24:44;;;;;;;1.57;1.13;;;11.20;98.20;;;;;;4977007;28;20588;-78
2021/10/14 05:27:11;;;;;;;1.57;1.10;;;11.20;98.20;;;;;;4971690;28;20489;-78
2021/10/14 05:29:38;;;;;;;1.97;1.73;;;11.30;98.20;;;;;;4978174;28;20577;-79
2021/10/14 05:32:05;;;;;;;1.57;1.10;;;11.30;98.20;;;;;;4976660;28;20480;-76
2021/10/14 05:34:33;;;;;;;1.57;1.10;;;11.30;98.20;;;;;;4998668;28;20597;-76
2021/10/14 05:37:04;;;;;;;1.57;1.10;;;11.30;98.20;;;;;;4993927;28;20493;-76
2021/10/14 05:39:32;;;;;;;1.60;1.20;;;11.30;98.20;;;;;;5007556;28;20571;-76
2021/10/14 05:42:04;;;;;;;1.57;1.10;;;11.30;98.20;;;;;;5002037;28;20490;-76
2021/10/14 05:44:32;;;;;;;1.50;1.10;;;11.30;98.20;;;;;;4994524;28;20470;-76
2021/10/14 05:46:59;;;;;;;1.53;1.10;;;11.30;98.20;;;;;;4992967;28;20551;-76
2021/10/14 05:49:27;;;;;;;1.53;1.10;;;11.30;98.20;;;;;;4999106;28;20486;-76
2021/10/14 05:51:54;;;;;;;1.60;1.10;;;11.30;98.20;;;;;;5003305;28;20501;-76
2021/10/14 05:54:25;;;;;;;1.50;1.10;;;11.40;98.20;;;;;;5008432;28;20469;-76
2021/10/14 05:56:53;;;;;;;1.57;1.10;;;11.40;98.20;;;;;;4982668;28;20484;-78
2021/10/14 05:59:20;;;;;;;1.53;1.10;;;11.40;98.20;;;;;;4983219;28;20484;-77
2021/10/14 06:01:47;;;;;;;1.60;1.10;;;11.40;98.20;;;;;;4981500;28;20491;-76
2021/10/14 06:04:17;;;;;;;1.57;1.10;;;11.40;98.20;;;;;;4990756;28;20737;-76
2021/10/14 06:06:46;;;;;;;1.57;1.20;;;11.40;98.20;;;;;;4993360;28;20466;-76
2021/10/14 06:09:18;;;;;;;1.57;1.10;;;11.40;98.20;;;;;;4991445;28;20490;-78
2021/10/14 06:11:47;;;;;;;1.60;1.20;;;11.40;98.20;;;;;;4984496;28;21015;-76
2021/10/14 06:14:16;;;;;;;1.50;1.10;;;11.40;98.20;;;;;;4993161;28;20494;-75
2021/10/14 06:16:46;;;;;;;1.60;1.20;;;11.40;98.20;;;;;;4976623;28;20481;-75
2021/10/14 06:19:13;;;;;;;1.53;1.10;;;11.30;98.20;;;;;;4991053;28;20508;-75
2021/10/14 06:21:40;;;;;;;1.53;1.10;;;11.30;98.20;;;;;;4983423;28;20511;-78
2021/10/14 06:24:07;;;;;;;1.50;1.10;;;11.30;98.20;;;;;;4985360;28;20620;-80
2021/10/14 06:26:34;;;;;;;1.50;1.10;;;11.30;98.20;;;;;;4968441;28;20571;-78
2021/10/14 06:29:01;;;;;;;1.60;1.10;;;11.30;98.20;;;;;;4979949;28;20488;-80
2021/10/14 06:31:29;;;;;;;1.57;1.20;;;11.30;98.20;;;;;;4970255;28;20595;-76
2021/10/14 06:33:56;;;;;;;1.57;1.10;;;11.30;98.20;;;;;;4984944;28;20509;-76
2021/10/14 06:36:26;;;;;;;1.53;1.00;;;11.30;98.20;;;;;;4965844;28;20806;-75
2021/10/14 06:38:53;;;;;;;1.57;1.10;;;11.30;98.20;;;;;;4981707;28;20517;-77
2021/10/14 06:41:20;;;;;;;1.60;1.10;;;11.30;98.20;;;;;;4962547;28;20991;-77
2021/10/14 06:43:47;;;;;;;1.50;1.00;;;11.30;98.20;;;;;;4991281;28;20613;-77
2021/10/14 06:46:14;;;;;;;1.57;1.20;;;11.30;98.20;;;;;;4967216;28;20575;-80
2021/10/14 06:48:52;;;;;;;1.53;1.10;;;11.20;98.20;;;;;;4987376;28;20596;-76
2021/10/14 06:51:19;;;;;;;1.57;1.10;;;11.20;98.20;;;;;;4963601;28;20528;-79
2021/10/14 06:53:49;;;;;;;1.53;1.17;;;11.20;98.20;;;;;;4981361;28;20470;-79
2021/10/14 06:56:16;;;;;;;1.57;1.10;;;11.20;98.20;;;;;;4973125;28;20489;-79
2021/10/14 06:58:45;;;;;;;1.57;1.10;;;11.20;98.20;;;;;;4997828;28;20583;-78
2021/10/14 07:01:15;;;;;;;1.53;1.10;;;11.20;98.20;;;;;;4968975;28;20500;-78
2021/10/14 07:03:42;;;;;;;1.60;1.10;;;11.20;98.20;;;;;;4986485;28;20521;-78
2021/10/14 07:06:12;;;;;;;1.60;1.20;;;11.20;98.20;;;;;;4970879;28;20531;-79
2021/10/14 07:08:45;;;;;;;1.53;1.20;;;11.20;98.20;;;;;;4989324;28;20486;-79
2021/10/14 07:11:27;;;;;;;;;;;;;;;;;;;;;
2021/10/14 07:13:57;;;;;;;1.50;1.10;;;11.20;98.20;;;;;;4983282;28;20556;-79
2021/10/14 07:16:32;;;;;;;1.60;1.20;;;11.20;98.20;;;;;;4971339;28;20493;-79
2021/10/14 07:19:08;;;;;;;1.50;1.10;;;11.20;98.20;;;;;;4982845;28;21027;-78
2021/10/14 07:21:47;;;;;;;1.50;1.10;;;11.20;98.20;;;;;;4964910;28;20912;-77
2021/10/14 07:24:16;;;;;;;1.53;1.10;;;11.20;98.20;;;;;;4988305;28;20594;-77
2021/10/14 07:26:46;;;;;;;1.50;1.10;;;11.20;98.20;;;;;;4975649;28;20489;-77
2021/10/14 07:29:13;;;;;;;1.53;1.10;;;11.20;98.20;;;;;;4990662;28;20576;-77
2021/10/14 07:31:40;;;;;;;1.57;1.10;;;11.20;98.20;;;;;;4974214;28;20493;-77
2021/10/14 07:34:10;;;;;;;1.50;1.10;;;11.20;98.20;;;;;;4993012;28;20720;-78
2021/10/14 07:36:38;;;;;;;1.53;1.10;;;11.30;98.20;;;;;;4970256;28;20492;-78
2021/10/14 07:39:09;;;;;;;1.60;1.10;;;11.30;98.20;;;;;;4992881;28;20887;-78
2021/10/14 07:41:37;;;;;;;1.53;1.10;;;11.40;98.20;;;;;;4972212;28;20489;-78
2021/10/14 07:44:07;;;;;;;1.57;1.10;;;11.40;98.20;;;;;;4984227;28;20834;-77
2021/10/14 07:46:37;;;;;;;1.57;1.10;;;11.40;98.20;;;;;;4967468;28;20496;-77
2021/10/14 07:49:05;;;;;;;1.60;1.10;;;11.40;98.20;;;;;;4985942;28;20485;-79
2021/10/14 07:51:42;;;;;;;1.57;1.10;;;11.50;98.20;;;;;;4976486;28;20543;-77
2021/10/14 07:54:11;;;;;;;1.57;1.10;;;11.50;98.20;;;;;;4988507;28;20474;-78
2021/10/14 07:56:38;;;;;;;1.57;1.00;;;11.50;98.20;;;;;;4971637;28;20508;-79
2021/10/14 07:59:06;;;;;;;1.57;1.10;;;11.50;98.20;;;;;;4983347;28;20609;-80
2021/10/14 08:01:33;;;;;;;1.53;1.10;;;11.60;98.20;;;;;;4967575;28;20499;-77
2021/10/14 08:03:59;;;;;;;1.57;1.10;;;11.60;98.20;;;;;;4985644;28;20481;-78
2021/10/14 08:06:27;;;;;;;1.57;1.10;;;11.60;98.20;;;;;;4971359;28;21059;-77
2021/10/14 08:08:54;;;;;;;1.53;1.13;;;11.60;98.20;;;;;;4985860;28;20500;-77
2021/10/14 08:11:22;;;;;;;1.57;1.10;;;11.60;98.20;;;;;;4961555;28;20481;-77
2021/10/14 08:13:49;;;;;;;1.60;1.30;;;11.60;98.20;;;;;;4986150;28;20501;-77
2021/10/14 08:16:16;;;;;;;1.53;1.10;;;11.70;98.20;;;;;;4970368;28;20491;-77
2021/10/14 08:18:43;;;;;;;1.60;1.20;;;11.70;98.20;;;;;;4977700;28;20482;-77
2021/10/14 08:21:25;;;;;;;1.57;1.03;;;11.70;98.20;;;;;;4971451;28;20481;-79
2021/10/14 08:23:51;;;;;;;1.60;1.10;;;11.80;98.20;;;;;;4980391;28;20981;-79
2021/10/14 08:26:19;;;;;;;1.57;1.10;;;11.80;98.20;;;;;;4965978;28;20877;-77
2021/10/14 08:28:48;;;;;;;1.57;1.00;;;11.80;98.20;;;;;;4983039;28;20490;-79
2021/10/14 08:31:15;;;;;;;1.60;1.10;;;11.80;98.20;;;;;;4958899;28;20603;-79
2021/10/14 08:33:42;;;;;;;1.57;1.00;;;11.80;98.20;;;;;;4978814;28;20469;-78
2021/10/14 08:36:10;;;;;;;1.50;1.10;;;11.80;98.20;;;;;;4968688;28;20540;-77
2021/10/14 08:38:37;;;;;;;1.60;1.10;;;11.90;98.20;;;;;;4986054;28;20490;-77
2021/10/14 08:41:23;;;;;;;1.57;1.07;;;11.90;98.20;;;;;;4970617;28;20488;-78
2021/10/14 08:43:52;;;;;;;1.53;1.10;;;11.90;98.20;;;;;;4970300;28;21071;-78
2021/10/14 08:46:20;;;;;;;1.57;1.10;;;11.90;98.20;;;;;;4963832;28;20913;-77
2021/10/14 08:48:50;;;;;;;1.53;1.10;;;11.90;98.20;;;;;;4978318;28;20491;-78
2021/10/14 08:51:18;;;;;;;1.57;1.03;;;12.00;98.20;;;;;;4957739;28;20473;-78
2021/10/14 08:53:47;;;;;;;1.50;1.10;;;12.00;98.20;;;;;;4981625;28;20495;-79
2021/10/14 08:56:14;;;;;;;1.57;1.10;;;12.10;98.20;;;;;;4963807;28;20597;-79
2021/10/14 08:58:42;;;;;;;1.60;1.10;;;12.10;98.20;;;;;;4991509;28;20494;-78
2021/10/14 09:01:26;;;;;;;1.53;1.10;;;12.10;98.20;;;;;;4963224;28;20568;-77
2021/10/14 09:03:54;;;;;;;1.50;1.00;;;12.10;98.20;;;;;;4986150;28;20484;-78
2021/10/14 09:06:21;;;;;;;1.53;1.10;;;12.10;98.20;;;;;;4961884;28;21227;-79
2021/10/14 09:08:50;;;;;;;1.53;1.10;;;12.20;98.20;;;;;;4977803;28;20496;-78
2021/10/14 09:11:22;;;;;;;1.50;1.10;;;12.20;98.20;;;;;;4972863;28;20867;-78
2021/10/14 09:13:52;;;;;;;1.80;1.40;;;12.20;98.20;;;;;;4989818;28;20526;-78
2021/10/14 09:16:30;;;;;;;1.50;1.10;;;12.30;98.20;;;;;;4977234;28;20481;-78
2021/10/14 09:19:12;;;;;;;1.60;1.10;;;12.30;98.20;;;;;;4990629;28;20491;-78
2021/10/14 09:21:41;;;;;;;1.60;1.10;;;12.40;98.20;;;;;;4976098;28;20827;-78
2021/10/14 09:24:30;;;;;;;1.57;1.03;;;12.40;98.20;;;;;;4990101;28;21000;-77
2021/10/14 09:26:59;;;;;;;1.60;1.00;;;12.50;98.20;;;;;;4979382;28;20500;-79
2021/10/14 09:29:28;;;;;;;1.57;1.00;;;12.50;98.20;;;;;;4984196;28;20888;-78
2021/10/14 09:32:05;;;;;;;1.53;1.00;;;12.60;98.20;;;;;;4974234;28;21019;-79
2021/10/14 09:34:49;;;;;;;1.53;1.07;;;12.60;98.20;;;;;;4988399;28;20500;-78
2021/10/14 09:37:31;;;;;;;1.50;1.00;;;12.60;98.20;;;;;;4983282;28;20503;-77
2021/10/14 09:40:00;;;;;;;3.60;1.43;;;12.60;98.20;;;;;;4978680;28;20542;-78
2021/10/14 09:42:44;;;;;;;1.57;1.10;;;12.70;98.20;;;;;;4981907;28;20572;-78
2021/10/14 09:45:26;;;;;;;1.53;1.00;;;12.70;98.20;;;;;;4988504;28;20885;-78
2021/10/14 09:48:14;;;;;;;1.53;1.00;;;12.70;98.20;;;;;;4990507;28;20971;-77
2021/10/14 09:50:47;;;;;;;1.53;1.00;;;12.80;98.20;;;;;;4987521;28;20461;-77
2021/10/14 09:53:16;;;;;;;1.60;1.10;;;12.80;98.20;;;;;;4990347;28;20480;-78
2021/10/14 09:55:50;;;;;;;1.53;1.00;;;12.90;98.20;;;;;;4987874;28;20476;-78
2021/10/14 09:58:22;;;;;;;1.60;1.07;;;12.90;98.20;;;;;;4966756;28;20481;-78
2021/10/14 10:01:02;;;;;;;1.60;1.00;;;13.00;98.20;;;;;;4961565;28;20578;-77
2021/10/14 10:03:32;;;;;;;1.60;1.10;;;13.10;98.20;;;;;;4989072;28;20887;-78
2021/10/14 10:06:04;;;;;;;1.57;1.00;;;13.20;98.20;;;;;;4964138;28;20466;-78
2021/10/14 10:08:53;;;;;;;1.50;1.00;;;13.30;98.20;;;;;;4988013;28;20538;-77
2021/10/14 10:11:32;;;;;;;1.57;1.00;;;13.40;98.20;;;;;;4969036;28;20992;-77
2021/10/14 10:14:25;;;;;;;1.57;1.00;;;13.50;98.20;;;;;;4999037;28;20461;-78
2021/10/14 10:16:57;;;;;;;1.53;1.00;;;13.60;98.20;;;;;;4971252;28;21323;-78
2021/10/14 10:19:44;;;;;;;1.60;1.00;;;13.70;98.20;;;;;;4980289;28;20486;-78
2021/10/14 10:22:12;;;;;;;1.60;1.10;;;13.70;98.20;;;;;;4975537;28;20480;-77
2021/10/14 10:24:39;;;;;;;1.60;1.00;;;13.80;98.20;;;;;;4974198;28;20557;-77
2021/10/14 10:27:07;;;;;;;1.60;1.00;;;13.90;98.20;;;;;;4975513;28;20607;-77
2021/10/14 10:29:46;;;;;;;1.50;1.00;;;13.90;98.20;;;;;;4978629;28;20930;-79
2021/10/14 10:32:21;;;;;;;1.60;1.00;;;14.00;98.20;;;;;;4965942;28;21311;-76
2021/10/14 10:35:00;;;;;;;1.60;1.00;;;14.00;98.20;;;;;;4979624;28;20582;-78
2021/10/14 10:37:39;;;;;;;1.60;1.10;;;14.00;98.20;;;;;;4973256;28;20484;-76
2021/10/14 10:40:16;;;;;;;1.53;1.00;;;14.10;98.20;;;;;;4972499;28;20497;-78
2021/10/14 10:42:46;;;;;;;1.57;1.00;;;14.10;98.20;;;;;;4976959;28;20940;-77
2021/10/14 10:45:14;;;;;;;1.57;1.00;;;14.00;98.20;;;;;;4970084;28;20494;-76
2021/10/14 10:48:01;;;;;;;1.60;1.00;;;14.10;98.20;;;;;;4972538;28;20605;-76
2021/10/14 10:53:23;;;;;;;1.70;1.00;;;14.10;98.20;;;;;;5025530;27;20616;-78
2021/10/14 10:55:56;;;;;;;1.60;1.00;;;14.10;98.20;;;;;;4998386;28;20205;-76
2021/10/14 10:58:42;;;;;;;1.50;1.00;;;14.10;98.20;;;;;;5014785;28;20479;-77
2021/10/14 11:01:09;;;;;;;1.60;1.00;;;14.10;98.20;;;;;;5002007;28;20491;-79
2021/10/14 11:03:36;;;;;;;1.53;1.03;;;14.10;98.20;;;;;;5012949;28;21022;-79
2021/10/14 11:06:09;;;;;;;1.53;1.00;;;14.10;98.20;;;;;;4995052;28;20468;-77
2021/10/14 11:08:39;;;;;;;1.57;1.03;;;14.10;98.20;;;;;;5016781;28;20494;-77
2021/10/14 11:11:11;;;;;;;1.60;1.00;;;14.10;98.20;;;;;;5002033;28;20487;-79
2021/10/14 11:13:41;;;;;;;1.70;1.10;;;14.10;98.20;;;;;;5011335;28;20519;-77
2021/10/14 11:16:10;;;;;;;1.50;1.00;;;14.10;98.20;;;;;;4992633;28;20483;-79
2021/10/14 11:18:39;;;;;;;1.60;1.00;;;14.10;98.20;;;;;;5021451;28;20468;-79
2021/10/14 11:21:09;;;;;;;1.57;1.00;;;14.10;98.20;;;;;;5018412;28;20479;-78
2021/10/14 11:23:39;;;;;;;1.57;1.00;;;14.10;98.20;;;;;;5030037;28;20567;-78
2021/10/14 11:26:09;;;;;;;1.60;1.10;;;14.20;98.20;;;;;;5001268;28;20510;-77
2021/10/14 11:28:55;;;;;;;1.53;1.00;;;14.20;98.20;;;;;;5008721;28;20490;-78
2021/10/14 11:31:24;;;;;;;1.60;1.00;;;14.20;98.20;;;;;;4997925;28;21296;-77
2021/10/14 11:33:52;;;;;;;1.60;1.20;;;14.20;98.20;;;;;;5014071;28;20495;-79
2021/10/14 11:36:20;;;;;;;1.50;0.90;;;14.20;98.20;;;;;;4993418;28;20492;-80
2021/10/14 11:38:59;;;;;;;1.60;1.00;;;14.20;98.20;;;;;;5012745;28;20539;-78
2021/10/14 11:41:26;;;;;;;1.50;1.00;;;14.20;98.20;;;;;;4991992;28;20493;-79
2021/10/14 11:43:58;;;;;;;1.50;0.90;;;14.30;98.20;;;;;;5010372;28;21110;-78
2021/10/14 11:46:27;;;;;;;1.57;1.00;;;14.20;98.20;;;;;;4992096;28;20486;-78
2021/10/14 11:48:59;;;;;;;1.57;1.00;;;14.30;98.20;;;;;;5010445;28;20486;-78
2021/10/14 11:51:26;;;;;;;1.53;1.00;;;14.30;98.20;;;;;;4992460;28;21028;-78
2021/10/14 11:54:00;;;;;;;1.50;1.00;;;14.30;98.20;;;;;;5011601;28;20472;-79
2021/10/14 11:56:31;;;;;;;1.50;1.00;;;14.40;98.20;;;;;;4989898;28;20486;-79
2021/10/14 11:59:05;;;;;;;1.50;0.90;;;14.40;98.20;;;;;;5028183;28;20535;-78
2021/10/14 12:01:34;;;;;;;1.57;1.00;;;14.50;98.20;;;;;;5008337;28;20466;-77
2021/10/14 12:04:04;;;;;;;1.50;1.00;;;14.50;98.20;;;;;;5014869;28;20982;-78
2021/10/14 12:06:32;;;;;;;1.57;1.10;;;14.60;98.20;;;;;;4993408;28;20535;-78
2021/10/14 12:09:00;;;;;;;1.50;1.00;;;14.70;98.20;;;;;;5014275;28;20472;-78
2021/10/14 12:11:27;;;;;;;1.50;1.00;;;14.80;98.20;;;;;;4989740;28;20484;-78
2021/10/14 12:13:59;;;;;;;1.60;1.10;;;15.00;98.20;;;;;;5004222;28;20473;-77
2021/10/14 12:16:27;;;;;;;1.60;1.00;;;15.00;98.20;;;;;;4995719;28;20495;-79
2021/10/14 12:18:53;;;;;;;2.03;1.83;;;15.10;98.20;;;;;;5008737;28;20576;-78
2021/10/14 12:21:32;;;;;;;1.70;1.40;;;15.20;98.20;;;;;;4992963;28;20628;-77
2021/10/14 12:24:09;;;;;;;1.57;0.97;;;15.30;98.20;;;;;;5004042;28;20839;-78
2021/10/14 12:26:43;;;;;;;1.50;0.97;;;15.40;98.20;;;;;;4985661;28;20534;-77
2021/10/14 12:29:21;;;;;;;1.57;1.00;;;15.50;98.20;;;;;;5007542;28;20524;-78
2021/10/14 12:31:49;;;;;;;1.60;1.00;;;15.70;98.20;;;;;;4992703;28;20476;-78
2021/10/14 12:34:16;;;;;;;1.57;1.00;;;15.80;98.20;;;;;;5005871;28;20467;-77
2021/10/14 12:36:45;;;;;;;1.60;1.00;;;15.90;98.20;;;;;;4993802;28;20483;-78
2021/10/14 12:39:24;;;;;;;1.60;0.90;;;16.00;98.20;;;;;;5004619;28;20492;-77
2021/10/14 12:41:52;;;;;;;1.57;1.00;;;16.20;98.20;;;;;;4995208;28;20526;-75
2021/10/14 12:44:21;;;;;;;1.60;1.00;;;16.30;98.20;;;;;;5009758;28;20437;-77
2021/10/14 12:46:57;;;;;;;1.60;0.97;;;16.50;98.20;;;;;;4993436;28;20484;-77
2021/10/14 12:50:01;;;;;;;2.17;1.43;;;16.60;98.20;;;;;;5001757;28;20480;-78
2021/10/14 12:52:29;;;;;;;1.53;1.00;;;16.70;98.20;;;;;;5003665;28;20480;-78
2021/10/14 12:55:08;;;;;;;1.60;1.20;;;16.70;98.20;;;;;;5005381;28;20496;-77
2021/10/14 12:57:35;;;;;;;1.60;1.00;;;16.80;98.20;;;;;;5007776;28;20540;-78
2021/10/14 13:00:03;;;;;;;1.60;1.00;;;16.90;98.20;;;;;;5003952;28;20499;-77
2021/10/14 13:02:29;;;;;;;1.60;1.10;;;17.00;98.20;;;;;;5018042;28;20718;-78